Terminal Aerodrome Forecast
Issued by NWS

Home | Current Version | Previous Version | Text Only | Print | Product List | Glossary On
Versions: 1 2 3 4 5 6 7 8 9 10 11 12 13 14 15 16 17 18 19 20 21 22 23 24 25 26 27 28 29 30 31 32 33 34 35 36 37 38 39 40
000
FTUS41 KRNK 020529
TAFLWB
TAF
KLWB 020529Z 0206/0306 00000KT 4SM BR VCSH SCT030 OVC070
      TEMPO 0206/0210 2SM -SHRA BR OVC025
     FM021000 VRB03KT P6SM VCSH BKN015 OVC040
     FM021800 27006KT P6SM -SHRA SCT025 BKN035
      TEMPO 0218/0222 3SM -TSRA OVC020CB
     FM022200 VRB03KT 5SM BR VCTS OVC020CB=

USA.gov is the U.S. government's official web portal to all federal, state and local government web resources and services.